createdAt,value
2023-05-09T00:01:13.396Z,100343.03
2023-05-09T00:03:40.534Z,100345.72
2023-05-09T00:06:07.256Z,100334.22
2023-05-09T00:08:33.602Z,100347.53
2023-05-09T00:10:59.908Z,100341.38
2023-05-09T00:13:26.295Z,100322.28
2023-05-09T00:15:54.030Z,100332.50
2023-05-09T00:18:22.012Z,100326.56
2023-05-09T00:20:49.014Z,100330.91
2023-05-09T00:23:16.472Z,100333.56
2023-05-09T00:25:43.115Z,100331.91
2023-05-09T00:28:09.434Z,100333.78
2023-05-09T00:30:35.788Z,100335.59
2023-05-09T00:33:02.408Z,100324.13
2023-05-09T00:35:29.013Z,100329.44
2023-05-09T00:37:55.306Z,100325.94
2023-05-09T00:40:21.693Z,100320.78
2023-05-09T00:42:47.986Z,100315.44
2023-05-09T00:45:14.477Z,100311.00
2023-05-09T00:47:41.159Z,100321.59
2023-05-09T00:50:08.820Z,100309.28
2023-05-09T00:52:36.002Z,100306.63
2023-05-09T00:55:02.577Z,100304.91
2023-05-09T00:57:29.029Z,100306.63
2023-05-09T00:59:55.459Z,100298.59
2023-05-09T01:02:22.014Z,100299.72
2023-05-09T01:04:48.461Z,100298.59
2023-05-09T01:07:48.646Z,100291.53
2023-05-09T01:10:58.236Z,100287.09
2023-05-09T01:13:35.595Z,100282.19
2023-05-09T01:16:16.273Z,100286.41
2023-05-09T01:18:48.911Z,100287.25
2023-05-09T01:21:24.034Z,100288.22
2023-05-09T01:24:17.732Z,100296.25
2023-05-09T01:26:57.871Z,100284.66
2023-05-09T01:29:33.155Z,100286.47
2023-05-09T01:32:04.545Z,100267.22
2023-05-09T01:34:33.728Z,100273.31
2023-05-09T01:37:02.151Z,100277.59
2023-05-09T01:39:31.750Z,100273.09
2023-05-09T01:42:01.881Z,100263.63
2023-05-09T01:44:35.293Z,100266.31
2023-05-09T01:47:04.210Z,100258.28
2023-05-09T01:49:33.422Z,100254.09
2023-05-09T01:52:03.670Z,100248.00
2023-05-09T01:54:30.896Z,100254.16
2023-05-09T01:56:59.094Z,100234.91
2023-05-09T01:59:27.893Z,100249.88
2023-05-09T02:01:55.695Z,100239.75
2023-05-09T02:04:22.352Z,100246.91
2023-05-09T02:06:51.321Z,100246.78
2023-05-09T02:09:19.245Z,100246.91
2023-05-09T02:11:46.697Z,100242.56
2023-05-09T02:14:13.849Z,100245.59
2023-05-09T02:16:40.912Z,100249.25
2023-05-09T02:19:07.368Z,100244.28
2023-05-09T02:21:33.828Z,100248.75
2023-05-09T02:24:00.333Z,100254.22
2023-05-09T02:26:26.757Z,100252.56
2023-05-09T02:28:54.078Z,100251.88
2023-05-09T02:31:22.645Z,100251.88
2023-05-09T02:33:50.153Z,100239.53
2023-05-09T02:36:17.200Z,100237.09
2023-05-09T02:38:44.126Z,100238.91
2023-05-09T02:41:16.337Z,100236.41
2023-05-09T02:43:43.036Z,100226.94
2023-05-09T02:46:10.421Z,100222.59
2023-05-09T02:48:36.943Z,100234.25
2023-05-09T02:51:03.282Z,100234.47
2023-05-09T02:53:29.565Z,100222.31
2023-05-09T02:55:55.845Z,100217.25
2023-05-09T02:58:22.145Z,100228.66
2023-05-09T03:00:48.454Z,100236.69
2023-05-09T03:03:14.925Z,100234.97
2023-05-09T03:05:41.245Z,100228.06
2023-05-09T03:08:07.533Z,100229.22
2023-05-09T03:10:34.132Z,100233.69
2023-05-09T03:13:00.819Z,100233.81
2023-05-09T03:15:27.169Z,100219.78
2023-05-09T03:17:53.586Z,100223.28
2023-05-09T03:20:20.097Z,100216.94
2023-05-09T03:22:48.252Z,100207.38
2023-05-09T03:25:14.706Z,100211.75
2023-05-09T03:27:41.085Z,100214.50
2023-05-09T03:30:08.066Z,100205.84
2023-05-09T03:32:34.407Z,100215.66
2023-05-09T03:35:00.704Z,100217.44
2023-05-09T03:37:27.309Z,100212.25
2023-05-09T03:39:53.776Z,100189.50
2023-05-09T03:42:20.238Z,100191.22
2023-05-09T03:44:46.618Z,100184.34
2023-05-09T03:47:12.994Z,100201.03
2023-05-09T03:49:39.332Z,100201.16
2023-05-09T03:52:05.792Z,100196.88
2023-05-09T03:54:32.097Z,100203.09
2023-05-09T03:56:58.400Z,100202.22
2023-05-09T03:59:24.725Z,100191.59
2023-05-09T04:01:51.206Z,100196.09
2023-05-09T04:04:17.659Z,100193.41
2023-05-09T04:06:43.974Z,100193.47
2023-05-09T04:09:10.518Z,100182.50
2023-05-09T04:11:36.737Z,100214.09
2023-05-09T04:14:06.853Z,100198.53
2023-05-09T04:16:33.464Z,100205.38
2023-05-09T04:18:59.887Z,100208.84
2023-05-09T04:21:26.271Z,100189.63
2023-05-09T04:23:52.697Z,100186.16
2023-05-09T04:26:19.006Z,100195.53
2023-05-09T04:28:45.265Z,100196.44
2023-05-09T04:31:12.847Z,100192.84
2023-05-09T04:33:39.357Z,100187.72
2023-05-09T04:36:06.091Z,100176.34
2023-05-09T04:38:32.374Z,100194.47
2023-05-09T04:40:58.759Z,100193.47
2023-05-09T04:43:27.851Z,100196.88
2023-05-09T04:45:54.321Z,100193.22
2023-05-09T04:48:20.637Z,100203.75
2023-05-09T04:50:48.447Z,100193.81
2023-05-09T04:53:14.793Z,100178.88
2023-05-09T04:55:41.052Z,100183.16
2023-05-09T04:58:09.079Z,100169.88
2023-05-09T05:00:35.720Z,100180.09
2023-05-09T05:03:02.168Z,100172.97
2023-05-09T05:05:28.588Z,100168.16
2023-05-09T05:07:55.407Z,100166.44
2023-05-09T05:10:21.698Z,100171.25
2023-05-09T05:12:48.019Z,100166.69
2023-05-09T05:15:14.647Z,100174.34
2023-05-09T05:17:41.161Z,100165.00
2023-05-09T05:20:10.388Z,100172.66
2023-05-09T05:22:36.679Z,100144.44
2023-05-09T05:25:04.498Z,100167.84
2023-05-09T05:27:31.287Z,100166.47
2023-05-09T05:29:57.694Z,100157.31
2023-05-09T05:32:24.090Z,100163.25
2023-05-09T05:34:50.473Z,100169.09
2023-05-09T05:37:16.819Z,100153.94
2023-05-09T05:39:43.175Z,100164.22
2023-05-09T05:42:09.467Z,100160.38
2023-05-09T05:44:35.744Z,100156.63
2023-05-09T05:47:02.024Z,100160.75
2023-05-09T05:49:28.359Z,100156.78
2023-05-09T05:51:54.655Z,100153.63
2023-05-09T05:54:20.985Z,100142.66
2023-05-09T05:56:47.257Z,100147.44
2023-05-09T05:59:13.725Z,100139.97
2023-05-09T06:01:39.991Z,100150.69
2023-05-09T06:04:06.443Z,100141.25
2023-05-09T06:06:32.753Z,100144.28
2023-05-09T06:08:59.047Z,100143.66
2023-05-09T06:11:25.400Z,100145.59
2023-05-09T06:13:51.711Z,100135.66
2023-05-09T06:16:19.998Z,100130.78
2023-05-09T06:18:47.698Z,100132.41
2023-05-09T06:21:14.027Z,100129.81
2023-05-09T06:23:47.274Z,100123.13
2023-05-09T06:26:23.714Z,100118.31
2023-05-09T06:28:50.105Z,100108.13
2023-05-09T06:31:16.440Z,100117.53
2023-05-09T06:33:42.773Z,100093.75
2023-05-09T06:36:09.193Z,100112.00
2023-05-09T06:38:35.414Z,100113.66
2023-05-09T06:41:01.692Z,100108.91
2023-05-09T06:43:27.977Z,100092.56
2023-05-09T06:45:54.294Z,100098.44
2023-05-09T06:48:20.693Z,100107.25
2023-05-09T06:50:47.043Z,100107.44
2023-05-09T06:53:13.576Z,100104.84
2023-05-09T06:55:40.002Z,100109.88
2023-05-09T06:58:06.328Z,100103.81
2023-05-09T07:00:32.633Z,100103.34
2023-05-09T07:02:58.975Z,100106.47
2023-05-09T07:05:25.301Z,100099.28
2023-05-09T07:07:51.679Z,100093.56
2023-05-09T07:10:17.980Z,100092.63
2023-05-09T07:12:44.353Z,100086.13
2023-05-09T07:15:11.088Z,100083.84
2023-05-09T07:17:37.540Z,100077.44
2023-05-09T07:20:04.759Z,100080.69
2023-05-09T07:22:32.132Z,100071.78
2023-05-09T07:24:59.369Z,100069.03
2023-05-09T07:27:25.684Z,100072.13
2023-05-09T07:29:52.554Z,100066.59
2023-05-09T07:32:19.449Z,100065.38
2023-05-09T07:34:45.719Z,100047.44
2023-05-09T07:37:13.674Z,100054.53
2023-05-09T07:39:41.655Z,100036.56
2023-05-09T07:42:08.375Z,100054.63
2023-05-09T07:44:34.663Z,100038.41
2023-05-09T07:47:02.428Z,100034.09
2023-05-09T07:49:28.712Z,100042.78
2023-05-09T07:51:54.927Z,100035.28
2023-05-09T07:54:21.273Z,100036.16
2023-05-09T07:56:47.542Z,100043.47
2023-05-09T07:59:13.833Z,100041.66
2023-05-09T08:01:40.348Z,100042.91
2023-05-09T08:04:08.886Z,100039.19
2023-05-09T08:06:35.895Z,100028.94
2023-05-09T08:09:02.237Z,100025.91
2023-05-09T08:11:28.928Z,100033.59
2023-05-09T08:13:55.212Z,100021.03
2023-05-09T08:16:21.564Z,100022.59
2023-05-09T08:18:47.934Z,100015.59
2023-05-09T08:21:14.293Z,100019.63
2023-05-09T08:23:41.182Z,99995.59
2023-05-09T08:26:07.639Z,100008.09
2023-05-09T08:28:34.171Z,100014.38
2023-05-09T08:31:00.599Z,100007.03
2023-05-09T08:33:26.951Z,99997.78
2023-05-09T08:35:53.596Z,99987.41
2023-05-09T08:38:20.429Z,99990.69
2023-05-09T08:40:47.060Z,99975.94
2023-05-09T08:43:15.929Z,99985.06
2023-05-09T08:45:54.153Z,99984.63
2023-05-09T08:48:22.108Z,99982.84
2023-05-09T08:50:49.142Z,99983.41
2023-05-09T08:53:15.746Z,99976.13
2023-05-09T08:55:42.233Z,99979.00
2023-05-09T08:58:09.544Z,99982.66
2023-05-09T09:00:37.452Z,99976.03
2023-05-09T09:03:04.101Z,99978.63
2023-05-09T09:05:41.326Z,99971.16
2023-05-09T09:08:10.078Z,99964.13
2023-05-09T09:10:40.508Z,99945.06
2023-05-09T09:13:07.414Z,99969.59
2023-05-09T09:15:36.754Z,99952.72
2023-05-09T09:18:09.724Z,99950.31
2023-05-09T09:20:41.553Z,99953.06
2023-05-09T09:23:10.543Z,99946.63
2023-05-09T09:25:37.084Z,99940.22
2023-05-09T09:28:04.917Z,99937.78
2023-05-09T09:30:31.204Z,99936.75
2023-05-09T09:33:00.502Z,99930.81
2023-05-09T09:35:26.938Z,99925.34
2023-05-09T09:37:58.509Z,99920.91
2023-05-09T09:40:26.665Z,99911.25
2023-05-09T09:42:52.997Z,99912.28
2023-05-09T09:45:19.906Z,99918.50
2023-05-09T09:47:48.038Z,99905.16
2023-05-09T09:50:19.259Z,99904.00
2023-05-09T09:52:53.681Z,99897.47
2023-05-09T09:55:21.981Z,99898.44
2023-05-09T09:57:48.761Z,99898.63
2023-05-09T10:00:17.295Z,99897.47
2023-05-09T10:02:50.810Z,99888.91
2023-05-09T10:05:23.792Z,99886.94
2023-05-09T10:07:54.914Z,99890.09
2023-05-09T10:10:21.760Z,99887.53
2023-05-09T10:12:50.405Z,99878.63
2023-05-09T10:15:21.690Z,99871.41
2023-05-09T10:17:53.657Z,99866.50
2023-05-09T10:20:20.340Z,99870.34
2023-05-09T10:22:46.963Z,99860.03
2023-05-09T10:25:22.867Z,99864.09
2023-05-09T10:27:52.259Z,99847.97
2023-05-09T10:30:23.806Z,99846.53
2023-05-09T10:32:53.917Z,99840.88
2023-05-09T10:35:26.160Z,99838.00
2023-05-09T10:37:56.481Z,99834.19
2023-05-09T10:40:23.556Z,99832.66
2023-05-09T10:42:50.255Z,99825.69
2023-05-09T10:45:16.952Z,99820.13
2023-05-09T10:47:45.029Z,99813.75
2023-05-09T10:50:13.065Z,99814.00
2023-05-09T10:53:05.524Z,99808.91
2023-05-09T10:55:51.029Z,99797.72
2023-05-09T10:58:28.742Z,99801.78
2023-05-09T11:01:00.089Z,99795.38
2023-05-09T11:03:28.116Z,99788.38
2023-05-09T11:05:56.839Z,99773.75
2023-05-09T11:08:23.421Z,99770.94
2023-05-09T11:10:49.753Z,99766.41
2023-05-09T11:13:25.343Z,99760.44
2023-05-09T11:16:00.684Z,99760.91
2023-05-09T11:18:32.695Z,99751.09
2023-05-09T11:21:06.768Z,99746.44
2023-05-09T11:23:33.185Z,99738.56
2023-05-09T11:26:07.746Z,99735.34
2023-05-09T11:28:36.317Z,99740.25
2023-05-09T11:31:16.110Z,99728.97
2023-05-09T11:33:47.670Z,99737.13
2023-05-09T11:36:24.980Z,99729.34
2023-05-09T11:39:01.939Z,99730.47
2023-05-09T11:41:29.187Z,99729.88
2023-05-09T11:43:56.793Z,99719.69
2023-05-09T11:46:23.168Z,99721.38
2023-05-09T11:48:49.694Z,99714.50
2023-05-09T11:51:18.013Z,99720.00
2023-05-09T11:53:46.774Z,99709.94
2023-05-09T11:56:14.559Z,99719.38
2023-05-09T11:58:40.997Z,99700.56
2023-05-09T12:01:08.723Z,99696.38
2023-05-09T12:03:35.933Z,99697.13
2023-05-09T12:06:02.512Z,99703.31
2023-05-09T12:08:29.065Z,99692.78
2023-05-09T12:10:55.497Z,99695.88
2023-05-09T12:13:21.807Z,99681.28
2023-05-09T12:15:48.462Z,99671.34
2023-05-09T12:18:16.957Z,99679.44
2023-05-09T12:20:48.253Z,99678.22
2023-05-09T12:23:15.102Z,99671.72
2023-05-09T12:25:55.401Z,99664.88
2023-05-09T12:28:23.750Z,99656.97
2023-05-09T12:30:51.518Z,99635.66
2023-05-09T12:33:18.541Z,99639.00
2023-05-09T12:35:46.732Z,99632.34
2023-05-09T12:38:21.519Z,99622.38
2023-05-09T12:40:48.707Z,99627.69
2023-05-09T12:43:17.662Z,99616.41
2023-05-09T12:45:44.076Z,99617.72
2023-05-09T12:48:11.762Z,99614.16
2023-05-09T12:50:38.170Z,99609.25
2023-05-09T12:53:04.590Z,99604.00
2023-05-09T12:55:31.698Z,99612.38
2023-05-09T12:58:00.542Z,99579.09
2023-05-09T13:00:27.145Z,99599.03
2023-05-09T13:02:53.811Z,99590.66
2023-05-09T13:05:22.181Z,99594.91
2023-05-09T13:07:52.040Z,99592.03
2023-05-09T13:10:27.273Z,99589.34
2023-05-09T13:12:53.805Z,99571.72
2023-05-09T13:15:22.429Z,99569.75
2023-05-09T13:17:51.076Z,99573.19
2023-05-09T13:20:18.401Z,99566.25
2023-05-09T13:22:46.288Z,99558.88
2023-05-09T13:25:12.849Z,99563.47
2023-05-09T13:27:39.339Z,99557.09
2023-05-09T13:30:07.656Z,99551.22
2023-05-09T13:32:35.019Z,99554.81
2023-05-09T13:35:01.426Z,99546.06
2023-05-09T13:37:28.123Z,99534.63
2023-05-09T13:39:55.298Z,99529.06
2023-05-09T13:42:21.624Z,99544.25
2023-05-09T13:44:47.925Z,99530.41
2023-05-09T13:47:14.198Z,99522.19
2023-05-09T13:49:40.495Z,99522.50
2023-05-09T13:52:06.836Z,99507.59
2023-05-09T13:54:35.035Z,99503.91
2023-05-09T13:57:04.822Z,99504.63
2023-05-09T13:59:31.549Z,99517.91
2023-05-09T14:01:59.700Z,99511.31
2023-05-09T14:04:27.238Z,99498.09
2023-05-09T14:06:56.728Z,99496.44
2023-05-09T14:09:23.141Z,99494.34
2023-05-09T14:11:51.539Z,99486.09
2023-05-09T14:14:21.366Z,99479.97
2023-05-09T14:16:48.359Z,99469.25
2023-05-09T14:19:15.518Z,99472.31
2023-05-09T14:21:42.952Z,99468.88
2023-05-09T14:24:10.704Z,99466.88
2023-05-09T14:26:36.996Z,99469.38
2023-05-09T14:29:04.546Z,99457.88
2023-05-09T14:31:31.211Z,99462.81
2023-05-09T14:33:58.839Z,99454.06
2023-05-09T14:36:25.866Z,99464.13
2023-05-09T14:38:52.462Z,99456.72
2023-05-09T14:41:21.331Z,99468.09
2023-05-09T14:43:48.479Z,99485.09
2023-05-09T14:46:14.848Z,99490.94
2023-05-09T14:48:41.516Z,99484.03
2023-05-09T14:51:08.390Z,99468.09
2023-05-09T14:53:41.517Z,99476.88
2023-05-09T14:56:10.322Z,99464.25
2023-05-09T14:58:36.930Z,99460.88
2023-05-09T15:01:07.000Z,99467.81
2023-05-09T15:03:33.514Z,99451.72
2023-05-09T15:05:59.803Z,99451.91
2023-05-09T15:08:26.860Z,99446.66
2023-05-09T15:10:53.215Z,99441.47
2023-05-09T15:13:19.595Z,99443.63
2023-05-09T15:15:46.083Z,99445.75
2023-05-09T15:18:13.249Z,99431.75
2023-05-09T15:20:39.711Z,99405.25
2023-05-09T15:23:07.582Z,99419.88
2023-05-09T15:25:34.557Z,99401.31
2023-05-09T15:28:01.287Z,99403.75
2023-05-09T15:30:28.072Z,99401.81
2023-05-09T15:32:54.458Z,99408.69
2023-05-09T15:35:20.946Z,99405.78
2023-05-09T15:37:47.288Z,99394.50
2023-05-09T15:40:13.767Z,99397.38
2023-05-09T15:42:40.377Z,99391.78
2023-05-09T15:45:07.508Z,99382.41
2023-05-09T15:47:33.907Z,99371.78
2023-05-09T15:50:00.337Z,99380.13
2023-05-09T15:52:27.710Z,99367.13
2023-05-09T15:54:55.813Z,99376.47
2023-05-09T15:57:23.153Z,99375.19
2023-05-09T15:59:49.511Z,99346.53
2023-05-09T16:02:15.907Z,99370.19
2023-05-09T16:04:43.835Z,99373.28
2023-05-09T16:07:10.110Z,99371.81
2023-05-09T16:09:37.169Z,99362.38
2023-05-09T16:12:04.157Z,99369.81
2023-05-09T16:14:31.162Z,99358.44
2023-05-09T16:16:57.532Z,99362.22
2023-05-09T16:19:23.784Z,99357.03
2023-05-09T16:21:50.074Z,99347.19
2023-05-09T16:24:16.691Z,99359.69
2023-05-09T16:26:42.994Z,99348.13
2023-05-09T16:29:09.809Z,99347.91
2023-05-09T16:31:36.253Z,99355.84
2023-05-09T16:34:02.916Z,99354.75
2023-05-09T16:36:30.261Z,99344.47
2023-05-09T16:38:56.628Z,99348.00
2023-05-09T16:41:23.019Z,99336.84
2023-05-09T16:43:49.419Z,99342.31
2023-05-09T16:46:16.174Z,99353.22
2023-05-09T16:48:42.628Z,99331.44
2023-05-09T16:51:09.116Z,99342.25
2023-05-09T16:53:36.223Z,99328.09
2023-05-09T16:56:03.836Z,99327.84
2023-05-09T16:58:30.270Z,99330.44
2023-05-09T17:00:57.035Z,99328.94
2023-05-09T17:03:23.807Z,99327.09
2023-05-09T17:05:51.130Z,99324.31
2023-05-09T17:08:17.468Z,99304.72
2023-05-09T17:10:43.687Z,99327.09
2023-05-09T17:13:10.252Z,99323.78
2023-05-09T17:15:38.223Z,99332.31
2023-05-09T17:18:04.968Z,99333.63
2023-05-09T17:20:31.706Z,99335.00
2023-05-09T17:22:58.028Z,99327.53
2023-05-09T17:25:24.234Z,99327.59
2023-05-09T17:27:50.532Z,99328.81
2023-05-09T17:30:18.339Z,99324.72
2023-05-09T17:32:45.835Z,99329.09
2023-05-09T17:35:13.573Z,99326.09
2023-05-09T17:37:39.944Z,99322.38
2023-05-09T17:40:07.799Z,99317.78
2023-05-09T17:42:34.110Z,99305.09
2023-05-09T17:45:00.445Z,99310.25
2023-05-09T17:47:27.344Z,99339.53
2023-05-09T17:49:53.640Z,99356.91
2023-05-09T17:52:19.902Z,99341.59
2023-05-09T17:54:46.686Z,99342.09
2023-05-09T17:57:12.991Z,99319.97
2023-05-09T17:59:41.279Z,99306.53
2023-05-09T18:02:08.028Z,99314.84
2023-05-09T18:04:34.592Z,99306.31
2023-05-09T18:07:01.439Z,99310.25
2023-05-09T18:09:28.066Z,99317.16
2023-05-09T18:11:54.497Z,99313.19
2023-05-09T18:14:20.802Z,99310.78
2023-05-09T18:16:47.151Z,99324.84
2023-05-09T18:19:13.497Z,99315.97
2023-05-09T18:21:39.891Z,99326.44
2023-05-09T18:24:07.517Z,99322.84
2023-05-09T18:26:33.897Z,99323.59
2023-05-09T18:29:00.237Z,99325.41
2023-05-09T18:31:26.674Z,99330.78
2023-05-09T18:33:52.909Z,99332.56
2023-05-09T18:36:19.207Z,99348.53
2023-05-09T18:38:46.567Z,99345.19
2023-05-09T18:41:15.449Z,99358.56
2023-05-09T18:43:46.127Z,99354.88
2023-05-09T18:46:17.254Z,99353.03
2023-05-09T18:48:45.114Z,99345.94
2023-05-09T18:51:12.095Z,99352.94
2023-05-09T18:53:38.521Z,99357.16
2023-05-09T18:56:05.120Z,99357.78
2023-05-09T18:58:32.409Z,99363.72
2023-05-09T19:00:58.875Z,99359.22
2023-05-09T19:03:25.412Z,99374.53
2023-05-09T19:05:51.660Z,99359.91
2023-05-09T19:08:17.990Z,99371.56
2023-05-09T19:10:44.761Z,99384.00
2023-05-09T19:13:11.955Z,99382.09
2023-05-09T19:15:39.697Z,99393.88
2023-05-09T19:18:06.257Z,99367.50
2023-05-09T19:20:32.575Z,99375.25
2023-05-09T19:22:59.137Z,99378.41
2023-05-09T19:25:25.941Z,99373.16
2023-05-09T19:27:55.520Z,99376.69
2023-05-09T19:30:22.010Z,99378.72
2023-05-09T19:32:48.242Z,99369.16
2023-05-09T19:35:14.683Z,99368.88
2023-05-09T19:37:40.963Z,99369.06
2023-05-09T19:40:07.855Z,99368.53
2023-05-09T19:42:35.200Z,99368.13
2023-05-09T19:45:01.862Z,99367.38
2023-05-09T19:47:28.266Z,99366.88
2023-05-09T19:49:54.615Z,99366.03
2023-05-09T19:52:21.031Z,99370.69
2023-05-09T19:54:47.291Z,99371.75
2023-05-09T19:57:13.662Z,99366.88
2023-05-09T19:59:40.080Z,99361.81
2023-05-09T20:02:06.836Z,99360.19
2023-05-09T20:04:35.107Z,99370.78
2023-05-09T20:07:02.452Z,99367.06
2023-05-09T20:09:30.316Z,99367.13
2023-05-09T20:11:56.605Z,99370.69
2023-05-09T20:14:23.007Z,99369.94
2023-05-09T20:16:49.398Z,99368.78
2023-05-09T20:19:15.884Z,99372.13
2023-05-09T20:21:42.115Z,99374.63
2023-05-09T20:24:08.917Z,99372.88
2023-05-09T20:26:35.229Z,99365.06
2023-05-09T20:29:01.656Z,99375.94
2023-05-09T20:31:29.018Z,99370.94
2023-05-09T20:33:55.626Z,99365.53
2023-05-09T20:36:21.921Z,99367.91
2023-05-09T20:38:48.273Z,99355.59
2023-05-09T20:41:14.651Z,99365.44
2023-05-09T20:43:40.905Z,99366.22
2023-05-09T20:46:07.235Z,99357.41
2023-05-09T20:48:33.608Z,99361.81
2023-05-09T20:50:59.928Z,99353.91
2023-05-09T20:53:27.532Z,99362.69
2023-05-09T20:55:53.869Z,99365.44
2023-05-09T20:58:20.305Z,99359.13
2023-05-09T21:00:47.069Z,99360.00
2023-05-09T21:03:13.736Z,99357.41
2023-05-09T21:05:40.771Z,99353.13
2023-05-09T21:08:07.107Z,99351.59
2023-05-09T21:10:33.430Z,99349.78
2023-05-09T21:12:59.774Z,99355.88
2023-05-09T21:15:26.066Z,99348.81
2023-05-09T21:17:52.392Z,99348.03
2023-05-09T21:20:18.938Z,99345.38
2023-05-09T21:22:46.002Z,99341.75
2023-05-09T21:25:12.827Z,99334.97
2023-05-09T21:27:39.113Z,99336.56
2023-05-09T21:30:06.342Z,99324.47
2023-05-09T21:32:32.670Z,99332.97
2023-05-09T21:34:59.035Z,99327.63
2023-05-09T21:37:25.501Z,99339.09
2023-05-09T21:39:51.799Z,99327.53
2023-05-09T21:42:18.156Z,99329.44
2023-05-09T21:44:45.003Z,99318.28
2023-05-09T21:47:11.613Z,99321.72
2023-05-09T21:49:38.600Z,99317.59
2023-05-09T21:52:04.888Z,99322.66
2023-05-09T21:54:31.175Z,99319.97
2023-05-09T21:56:57.433Z,99315.78
2023-05-09T21:59:23.714Z,99319.22
2023-05-09T22:01:50.090Z,99316.63
2023-05-09T22:04:16.388Z,99298.41
2023-05-09T22:06:42.881Z,99308.13
2023-05-09T22:09:09.522Z,99315.00
2023-05-09T22:11:36.419Z,99315.09
2023-05-09T22:14:03.529Z,99306.97
2023-05-09T22:16:30.241Z,99313.28
2023-05-09T22:18:56.930Z,99306.31
2023-05-09T22:21:23.249Z,99301.72
2023-05-09T22:23:49.560Z,99297.44
2023-05-09T22:26:15.827Z,99294.97
2023-05-09T22:28:42.170Z,99287.81
2023-05-09T22:31:08.671Z,99290.56
2023-05-09T22:33:34.954Z,99292.47
2023-05-09T22:36:01.539Z,99289.22
2023-05-09T22:38:27.779Z,99291.81
2023-05-09T22:40:54.046Z,99283.03
2023-05-09T22:43:20.369Z,99301.44
2023-05-09T22:45:46.877Z,99296.09
2023-05-09T22:48:13.105Z,99281.56
2023-05-09T22:50:39.450Z,99290.91
2023-05-09T22:53:05.770Z,99301.81
2023-05-09T22:55:32.073Z,99309.72
2023-05-09T22:57:58.330Z,99314.38
2023-05-09T23:00:24.640Z,99318.00
2023-05-09T23:02:51.084Z,99325.34
2023-05-09T23:05:17.433Z,99327.25
2023-05-09T23:07:44.256Z,99326.75
2023-05-09T23:10:10.570Z,99324.31
2023-05-09T23:12:37.969Z,99332.53
2023-05-09T23:15:06.237Z,99335.63
2023-05-09T23:17:32.574Z,99338.75
2023-05-09T23:20:00.555Z,99323.09
2023-05-09T23:22:27.001Z,99341.66
2023-05-09T23:24:53.259Z,99335.72
2023-05-09T23:27:19.533Z,99332.59
2023-05-09T23:29:45.797Z,99341.47
2023-05-09T23:32:12.072Z,99353.09
2023-05-09T23:34:38.817Z,99353.44
2023-05-09T23:37:05.097Z,99351.81
2023-05-09T23:39:31.821Z,99342.25
2023-05-09T23:41:58.164Z,99345.06
2023-05-09T23:44:24.473Z,99334.94
2023-05-09T23:46:50.825Z,99355.16
2023-05-09T23:49:17.179Z,99353.53
2023-05-09T23:51:43.603Z,99362.78
2023-05-09T23:54:09.873Z,99349.63
2023-05-09T23:56:36.205Z,99356.00
2023-05-09T23:59:02.525Z,99360.44
